createdAt,value
2018-09-10T00:00:33.393Z,0.00
2018-09-10T00:01:33.301Z,0.00
2018-09-10T00:02:33.225Z,0.00
2018-09-10T00:03:33.140Z,0.00
2018-09-10T00:04:33.066Z,0.00
2018-09-10T00:05:32.979Z,0.00
2018-09-10T00:06:32.901Z,0.00
2018-09-10T00:07:32.827Z,0.00
2018-09-10T00:08:32.740Z,0.00
2018-09-10T00:09:32.654Z,0.00
2018-09-10T00:10:32.577Z,0.00
2018-09-10T00:11:32.502Z,0.00
2018-09-10T00:12:32.416Z,0.00
2018-09-10T00:13:32.341Z,0.00
2018-09-10T00:14:32.253Z,0.00
2018-09-10T00:15:32.178Z,0.00
2018-09-10T00:16:32.091Z,0.00
2018-09-10T00:17:32.016Z,0.00
2018-09-10T00:18:31.929Z,0.00
2018-09-10T00:19:31.853Z,0.00
2018-09-10T00:20:31.766Z,0.00
2018-09-10T00:21:31.694Z,0.00
2018-09-10T00:22:31.605Z,0.00
2018-09-10T00:23:31.529Z,0.00
2018-09-10T00:24:31.444Z,0.00
2018-09-10T00:25:31.367Z,0.00
2018-09-10T00:26:31.280Z,0.00
2018-09-10T00:27:31.204Z,0.00
2018-09-10T00:28:31.117Z,0.00
2018-09-10T00:29:31.043Z,0.00
2018-09-10T00:30:30.968Z,0.00
2018-09-10T00:31:30.881Z,0.00
2018-09-10T00:32:30.793Z,0.00
2018-09-10T00:33:30.718Z,0.00
2018-09-10T00:34:30.643Z,0.00
2018-09-10T00:35:30.555Z,0.00
2018-09-10T00:36:30.479Z,0.00
2018-09-10T00:37:30.393Z,0.00
2018-09-10T00:38:30.307Z,0.00
2018-09-10T00:39:30.246Z,0.00
2018-09-10T00:40:30.143Z,0.00
2018-09-10T00:41:30.073Z,0.00
2018-09-10T00:42:29.980Z,0.00
2018-09-10T00:43:29.905Z,0.00
2018-09-10T00:44:29.819Z,0.00
2018-09-10T00:45:29.744Z,0.00
2018-09-10T00:46:29.656Z,0.00
2018-09-10T00:47:29.581Z,0.00
2018-09-10T00:48:29.494Z,0.00
2018-09-10T00:49:29.420Z,0.00
2018-09-10T00:50:29.344Z,0.00
2018-09-10T00:51:29.256Z,0.00
2018-09-10T00:52:29.172Z,0.00
2018-09-10T00:53:29.095Z,0.00
2018-09-10T00:54:29.007Z,0.00
2018-09-10T00:55:28.935Z,0.00
2018-09-10T00:56:28.845Z,0.00
2018-09-10T00:57:28.770Z,0.00
2018-09-10T00:58:28.682Z,0.00
2018-09-10T00:59:28.609Z,0.00
2018-09-10T01:00:28.533Z,0.00
2018-09-10T01:01:28.446Z,0.00
2018-09-10T01:02:28.371Z,0.00
2018-09-10T01:03:28.283Z,0.00
2018-09-10T01:04:28.197Z,0.00
2018-09-10T01:05:28.122Z,0.00
2018-09-10T01:06:28.034Z,0.00
2018-09-10T01:07:27.958Z,0.00
2018-09-10T01:08:27.872Z,0.00
2018-09-10T01:09:27.797Z,0.00
2018-09-10T01:10:27.708Z,0.00
2018-09-10T01:11:27.635Z,0.00
2018-09-10T01:12:27.548Z,0.00
2018-09-10T01:13:27.507Z,0.00
2018-09-10T01:14:27.384Z,0.00
2018-09-10T01:15:27.309Z,0.00
2018-09-10T01:16:27.222Z,0.00
2018-09-10T01:17:27.146Z,0.00
2018-09-10T01:18:27.059Z,0.00
2018-09-10T01:19:26.984Z,0.00
2018-09-10T01:20:26.899Z,0.00
2018-09-10T01:21:26.822Z,0.00
2018-09-10T01:22:26.735Z,0.00
2018-09-10T01:23:26.660Z,0.00
2018-09-10T01:24:26.575Z,0.00
2018-09-10T01:25:26.486Z,0.00
2018-09-10T01:26:26.411Z,0.00
2018-09-10T01:27:26.335Z,0.00
2018-09-10T01:28:26.252Z,0.00
2018-09-10T01:29:26.161Z,0.00
2018-09-10T01:30:26.085Z,0.00
2018-09-10T01:31:25.999Z,0.00
2018-09-10T01:32:25.924Z,0.00
2018-09-10T01:33:25.837Z,0.00
2018-09-10T01:34:25.763Z,0.00
2018-09-10T01:35:25.707Z,0.00
2018-09-10T01:36:25.599Z,0.00
2018-09-10T01:37:25.512Z,0.00
2018-09-10T01:38:25.449Z,0.00
2018-09-10T01:39:25.349Z,0.00
2018-09-10T01:40:25.275Z,0.00
2018-09-10T01:41:25.188Z,0.00
2018-09-10T01:42:25.111Z,0.00
2018-09-10T01:43:25.025Z,0.00
2018-09-10T01:44:24.951Z,0.00
2018-09-10T01:45:24.862Z,0.00
2018-09-10T01:46:24.789Z,0.00
2018-09-10T01:47:24.712Z,0.00
2018-09-10T01:48:24.626Z,0.00
2018-09-10T01:49:24.553Z,0.00
2018-09-10T01:50:24.463Z,0.00
2018-09-10T01:51:24.377Z,0.00
2018-09-10T01:52:24.301Z,0.00
2018-09-10T01:53:24.213Z,0.00
2018-09-10T01:54:24.139Z,0.00
2018-09-10T01:55:24.052Z,0.00
2018-09-10T01:56:23.979Z,0.00
2018-09-10T01:57:23.891Z,0.00
2018-09-10T01:58:23.814Z,0.00
2018-09-10T01:59:23.727Z,0.00
2018-09-10T02:00:23.653Z,0.00
2018-09-10T02:01:23.567Z,0.00
2018-09-10T02:02:23.489Z,0.00
2018-09-10T02:03:23.403Z,0.00
2018-09-10T02:04:23.327Z,0.00
2018-09-10T02:05:23.240Z,0.00
2018-09-10T02:06:23.164Z,0.00
2018-09-10T02:07:23.080Z,0.00
2018-09-10T02:08:23.004Z,0.00
2018-09-10T02:09:22.914Z,0.00
2018-09-10T02:10:22.839Z,0.00
2018-09-10T02:11:22.753Z,0.00
2018-09-10T02:12:22.678Z,0.00
2018-09-10T02:13:22.590Z,0.00
2018-09-10T02:14:22.516Z,0.00
2018-09-10T02:15:22.429Z,0.00
2018-09-10T02:16:22.358Z,0.00
2018-09-10T02:17:22.266Z,0.00
2018-09-10T02:18:22.191Z,0.00
2018-09-10T02:19:22.105Z,0.00
2018-09-10T02:20:22.111Z,0.00
2018-09-10T02:21:21.942Z,0.00
2018-09-10T02:22:21.866Z,0.00
2018-09-10T02:23:21.784Z,0.00
2018-09-10T02:24:21.705Z,0.00
2018-09-10T02:25:21.618Z,0.00
2018-09-10T02:26:21.542Z,0.00
2018-09-10T02:27:21.515Z,0.00
2018-09-10T02:28:21.381Z,0.00
2018-09-10T02:29:21.308Z,0.00
2018-09-10T02:30:21.231Z,0.00
2018-09-10T02:31:21.131Z,0.00
2018-09-10T02:32:21.062Z,0.00
2018-09-10T02:33:20.970Z,0.00
2018-09-10T02:34:20.894Z,0.00
2018-09-10T02:35:20.813Z,0.00
2018-09-10T02:36:20.731Z,0.00
2018-09-10T02:37:20.643Z,0.00
2018-09-10T02:38:20.571Z,0.00
2018-09-10T02:39:20.482Z,0.00
2018-09-10T02:40:20.407Z,0.00
2018-09-10T02:41:20.333Z,0.00
2018-09-10T02:42:20.243Z,0.00
2018-09-10T02:43:20.165Z,0.00
2018-09-10T02:44:20.083Z,0.00
2018-09-10T02:45:19.994Z,0.00
2018-09-10T02:46:19.933Z,0.00
2018-09-10T02:47:19.832Z,0.00
2018-09-10T02:48:19.758Z,0.00
2018-09-10T02:49:19.672Z,0.00
2018-09-10T02:50:19.594Z,0.00
2018-09-10T02:51:19.508Z,0.00
2018-09-10T02:52:19.434Z,0.00
2018-09-10T02:53:19.346Z,0.00
2018-09-10T02:54:19.270Z,0.00
2018-09-10T02:55:19.256Z,0.00
2018-09-10T02:56:19.109Z,0.00
2018-09-10T02:57:19.033Z,0.00
2018-09-10T02:58:18.958Z,0.00
2018-09-10T02:59:18.863Z,0.00
2018-09-10T03:00:18.784Z,0.00
2018-09-10T03:01:18.699Z,0.00
2018-09-10T03:02:18.621Z,0.00
2018-09-10T03:03:18.535Z,0.00
2018-09-10T03:04:18.459Z,0.00
2018-09-10T03:05:18.372Z,0.00
2018-09-10T03:06:18.296Z,0.00
2018-09-10T03:07:18.210Z,0.00
2018-09-10T03:08:18.135Z,0.00
2018-09-10T03:09:18.060Z,0.00
2018-09-10T03:10:17.972Z,0.00
2018-09-10T03:11:17.884Z,0.00
2018-09-10T03:12:17.810Z,0.00
2018-09-10T03:13:17.722Z,0.00
2018-09-10T03:14:17.649Z,0.00
2018-09-10T03:15:17.560Z,0.00
2018-09-10T03:16:17.486Z,0.00
2018-09-10T03:17:17.397Z,0.00
2018-09-10T03:18:17.322Z,0.00
2018-09-10T03:19:17.237Z,0.00
2018-09-10T03:20:17.161Z,0.00
2018-09-10T03:21:17.074Z,0.00
2018-09-10T03:22:16.998Z,0.00
2018-09-10T03:23:16.911Z,0.00
2018-09-10T03:24:16.836Z,0.00
2018-09-10T03:25:16.748Z,0.00
2018-09-10T03:26:16.674Z,0.00
2018-09-10T03:27:16.587Z,0.00
2018-09-10T03:28:16.511Z,0.00
2018-09-10T03:29:16.424Z,0.00
2018-09-10T03:30:16.361Z,0.00
2018-09-10T03:31:16.264Z,0.00
2018-09-10T03:32:16.187Z,0.00
2018-09-10T03:33:16.099Z,0.00
2018-09-10T03:34:16.025Z,0.00
2018-09-10T03:35:15.938Z,0.00
2018-09-10T03:36:15.863Z,0.00
2018-09-10T03:37:15.774Z,0.00
2018-09-10T03:38:15.700Z,0.00
2018-09-10T03:39:15.613Z,0.00
2018-09-10T03:40:15.538Z,0.00
2018-09-10T03:41:15.449Z,0.00
2018-09-10T03:42:15.375Z,0.00
2018-09-10T03:43:15.289Z,0.00
2018-09-10T03:44:15.214Z,0.00
2018-09-10T03:45:15.125Z,0.00
2018-09-10T03:46:15.051Z,0.00
2018-09-10T03:47:15.003Z,0.00
2018-09-10T03:48:14.889Z,0.00
2018-09-10T03:49:14.802Z,0.00
2018-09-10T03:50:14.725Z,0.00
2018-09-10T03:51:14.642Z,0.00
2018-09-10T03:52:14.564Z,0.00
2018-09-10T03:53:14.476Z,0.00
2018-09-10T03:54:14.401Z,0.00
2018-09-10T03:55:14.315Z,0.00
2018-09-10T03:56:14.240Z,0.00
2018-09-10T03:57:14.152Z,0.00
2018-09-10T03:58:14.065Z,0.00
2018-09-10T03:59:13.991Z,0.00
2018-09-10T04:00:13.903Z,0.00
2018-09-10T04:01:13.840Z,0.00
2018-09-10T04:02:13.742Z,0.00
2018-09-10T04:03:13.666Z,0.00
2018-09-10T04:04:13.577Z,0.00
2018-09-10T04:05:13.503Z,0.00
2018-09-10T04:06:13.416Z,0.00
2018-09-10T04:07:13.341Z,0.00
2018-09-10T04:08:13.253Z,0.00
2018-09-10T04:09:13.177Z,0.00
2018-09-10T04:10:13.091Z,0.00
2018-09-10T04:11:13.019Z,0.00
2018-09-10T04:12:12.931Z,0.00
2018-09-10T04:13:12.855Z,0.00
2018-09-10T04:14:12.767Z,0.00
2018-09-10T04:15:12.691Z,0.00
2018-09-10T04:16:12.603Z,0.00
2018-09-10T04:17:12.554Z,0.00
2018-09-10T04:18:12.442Z,0.00
2018-09-10T04:19:12.368Z,0.00
2018-09-10T04:20:12.279Z,0.00
2018-09-10T04:21:12.192Z,0.00
2018-09-10T04:22:12.117Z,0.00
2018-09-10T04:23:12.030Z,0.00
2018-09-10T04:24:11.954Z,0.00
2018-09-10T04:25:11.867Z,5.63
2018-09-10T04:26:11.794Z,5.63
2018-09-10T04:27:11.709Z,5.63
2018-09-10T04:28:11.630Z,5.63
2018-09-10T04:29:11.542Z,5.63
2018-09-10T04:30:11.469Z,5.63
2018-09-10T04:31:11.383Z,5.63
2018-09-10T04:32:11.305Z,5.63
2018-09-10T04:33:11.220Z,5.63
2018-09-10T04:34:11.144Z,5.63
2018-09-10T04:35:11.056Z,5.63
2018-09-10T04:36:10.999Z,5.63
2018-09-10T04:37:10.898Z,5.63
2018-09-10T04:38:10.819Z,11.25
2018-09-10T04:39:10.731Z,11.25
2018-09-10T04:40:10.657Z,11.25
2018-09-10T04:41:10.570Z,11.25
2018-09-10T04:42:10.503Z,16.88
2018-09-10T04:43:10.407Z,16.88
2018-09-10T04:44:10.321Z,16.88
2018-09-10T04:45:10.246Z,16.88
2018-09-10T04:46:10.157Z,22.50
2018-09-10T04:47:10.083Z,22.50
2018-09-10T04:48:09.996Z,22.50
2018-09-10T04:49:09.924Z,22.50
2018-09-10T04:50:09.836Z,22.50
2018-09-10T04:51:09.757Z,28.13
2018-09-10T04:52:09.671Z,28.13
2018-09-10T04:53:09.596Z,28.13
2018-09-10T04:54:09.508Z,33.75
2018-09-10T04:55:09.434Z,33.75
2018-09-10T04:56:09.347Z,39.38
2018-09-10T04:57:09.260Z,39.38
2018-09-10T04:58:09.230Z,39.38
2018-09-10T04:59:09.097Z,39.38
2018-09-10T05:00:09.023Z,39.38
2018-09-10T05:01:08.934Z,39.38
2018-09-10T05:02:08.861Z,39.38
2018-09-10T05:03:08.783Z,39.38
2018-09-10T05:04:08.697Z,39.38
2018-09-10T05:05:08.622Z,39.38
2018-09-10T05:06:08.535Z,39.38
2018-09-10T05:07:08.450Z,39.38
2018-09-10T05:08:08.373Z,39.38
2018-09-10T05:09:08.285Z,39.38
2018-09-10T05:10:08.263Z,45.00
2018-09-10T05:11:08.123Z,45.00
2018-09-10T05:12:08.048Z,50.63
2018-09-10T05:13:07.970Z,50.63
2018-09-10T05:14:07.886Z,56.25
2018-09-10T05:15:07.798Z,61.88
2018-09-10T05:16:07.723Z,61.88
2018-09-10T05:17:07.641Z,67.50
2018-09-10T05:18:07.560Z,67.50
2018-09-10T05:19:07.474Z,67.50
2018-09-10T05:20:07.387Z,67.50
2018-09-10T05:21:07.311Z,67.50
2018-09-10T05:22:07.333Z,61.88
2018-09-10T05:23:07.149Z,61.88
2018-09-10T05:24:07.073Z,56.25
2018-09-10T05:25:06.988Z,56.25
2018-09-10T05:26:06.905Z,56.25
2018-09-10T05:27:06.824Z,56.25
2018-09-10T05:28:06.753Z,56.25
2018-09-10T05:29:06.675Z,56.25
2018-09-10T05:30:06.575Z,61.88
2018-09-10T05:31:06.511Z,61.88
2018-09-10T05:32:06.412Z,61.88
2018-09-10T05:33:06.336Z,67.50
2018-09-10T05:34:06.254Z,67.50
2018-09-10T05:35:06.177Z,73.13
2018-09-10T05:36:06.087Z,73.13
2018-09-10T05:37:06.015Z,78.75
2018-09-10T05:38:05.926Z,78.75
2018-09-10T05:39:05.851Z,78.75
2018-09-10T05:40:05.763Z,78.75
2018-09-10T05:41:05.701Z,78.75
2018-09-10T05:42:05.600Z,73.13
2018-09-10T05:43:05.526Z,73.13
2018-09-10T05:44:05.437Z,67.50
2018-09-10T05:45:05.364Z,61.88
2018-09-10T05:46:05.276Z,61.88
2018-09-10T05:47:05.202Z,56.25
2018-09-10T05:48:05.115Z,56.25
2018-09-10T05:49:05.040Z,50.63
2018-09-10T05:50:04.957Z,50.63
2018-09-10T05:51:04.877Z,50.63
2018-09-10T05:52:04.791Z,45.00
2018-09-10T05:53:04.722Z,45.00
2018-09-10T05:54:04.628Z,50.63
2018-09-10T05:55:04.554Z,50.63
2018-09-10T05:56:04.465Z,50.63
2018-09-10T05:57:04.403Z,56.25
2018-09-10T05:58:04.303Z,56.25
2018-09-10T05:59:04.227Z,56.25
2018-09-10T06:00:04.140Z,61.88
2018-09-10T06:01:04.066Z,61.88
2018-09-10T06:02:03.979Z,67.50
2018-09-10T06:03:03.904Z,73.13
2018-09-10T06:04:03.816Z,78.75
2018-09-10T06:05:03.741Z,90.00
2018-09-10T06:06:03.665Z,101.25
2018-09-10T06:07:03.586Z,106.88
2018-09-10T06:08:03.506Z,123.75
2018-09-10T06:09:03.416Z,135.00
2018-09-10T06:10:03.334Z,146.25
2018-09-10T06:11:03.254Z,151.88
2018-09-10T06:12:03.166Z,151.88
2018-09-10T06:13:03.105Z,151.88
2018-09-10T06:14:03.005Z,146.25
2018-09-10T06:15:02.932Z,146.25
2018-09-10T06:16:02.849Z,146.25
2018-09-10T06:17:02.768Z,151.88
2018-09-10T06:18:02.684Z,163.13
2018-09-10T06:19:02.606Z,174.38
2018-09-10T06:20:02.517Z,191.25
2018-09-10T06:21:02.443Z,202.50
2018-09-10T06:22:02.355Z,202.50
2018-09-10T06:23:02.281Z,202.50
2018-09-10T06:24:02.206Z,196.88
2018-09-10T06:25:02.118Z,191.25
2018-09-10T06:26:02.034Z,191.25
2018-09-10T06:27:01.961Z,185.63
2018-09-10T06:28:01.869Z,191.25
2018-09-10T06:29:01.795Z,196.88
2018-09-10T06:30:01.718Z,191.25
2018-09-10T06:31:01.633Z,185.63
2018-09-10T06:32:01.556Z,174.38
2018-09-10T06:33:01.469Z,174.38
2018-09-10T06:34:01.468Z,174.38
2018-09-10T06:35:01.308Z,174.38
2018-09-10T06:36:01.232Z,185.63
2018-09-10T06:37:01.210Z,196.88
2018-09-10T06:38:01.069Z,202.50
2018-09-10T06:39:00.994Z,213.75
2018-09-10T06:40:00.908Z,219.38
2018-09-10T06:41:00.835Z,230.63
2018-09-10T06:42:00.758Z,236.25
2018-09-10T06:43:00.670Z,241.88
2018-09-10T06:44:00.596Z,253.13
2018-09-10T06:45:00.508Z,258.75
2018-09-10T06:46:00.433Z,258.75
2018-09-10T06:47:00.347Z,258.75
2018-09-10T06:48:00.274Z,247.50
2018-09-10T06:49:00.195Z,230.63
2018-09-10T06:50:00.109Z,213.75
2018-09-10T06:51:00.034Z,208.13
2018-09-10T06:51:59.946Z,191.25
2018-09-10T06:52:59.871Z,185.63
2018-09-10T06:53:59.797Z,163.13
2018-09-10T06:54:59.713Z,146.25
2018-09-10T06:55:59.634Z,129.38
2018-09-10T06:56:59.547Z,112.50
2018-09-10T06:57:59.484Z,101.25
2018-09-10T06:58:59.396Z,101.25
2018-09-10T06:59:59.310Z,95.63
2018-09-10T07:00:59.235Z,95.63
2018-09-10T07:01:59.160Z,95.63
2018-09-10T07:02:59.085Z,118.13
2018-09-10T07:03:58.997Z,123.75
2018-09-10T07:04:58.922Z,112.50
2018-09-10T07:05:58.853Z,140.63
2018-09-10T07:06:58.762Z,140.63
2018-09-10T07:07:58.674Z,135.00
2018-09-10T07:08:58.597Z,140.63
2018-09-10T07:09:58.523Z,146.25
2018-09-10T07:10:58.448Z,163.13
2018-09-10T07:11:58.361Z,196.88
2018-09-10T07:12:58.326Z,208.13
2018-09-10T07:13:58.202Z,219.38
2018-09-10T07:14:58.125Z,208.13
2018-09-10T07:15:58.049Z,253.13
2018-09-10T07:16:57.962Z,281.25
2018-09-10T07:17:57.888Z,343.13
2018-09-10T07:18:57.828Z,421.88
2018-09-10T07:19:57.737Z,478.13
2018-09-10T07:20:57.652Z,466.88
2018-09-10T07:21:57.614Z,495.00
2018-09-10T07:22:57.487Z,450.00
2018-09-10T07:23:57.413Z,410.63
2018-09-10T07:24:57.337Z,371.25
2018-09-10T07:25:57.249Z,315.00
2018-09-10T07:26:57.174Z,315.00
2018-09-10T07:27:57.099Z,286.88
2018-09-10T07:28:57.038Z,281.25
2018-09-10T07:29:56.940Z,241.88
2018-09-10T07:30:56.866Z,247.50
2018-09-10T07:31:56.789Z,230.63
2018-09-10T07:32:56.726Z,202.50
2018-09-10T07:33:56.641Z,191.25
2018-09-10T07:34:56.551Z,174.38
2018-09-10T07:35:56.476Z,174.38
2018-09-10T07:36:56.400Z,196.88
2018-09-10T07:37:56.325Z,309.38
2018-09-10T07:38:56.250Z,241.88
2018-09-10T07:39:56.176Z,270.00
2018-09-10T07:40:56.088Z,219.38
2018-09-10T07:41:56.014Z,191.25
2018-09-10T07:42:55.942Z,174.38
2018-09-10T07:43:55.942Z,180.00
2018-09-10T07:44:55.789Z,236.25
2018-09-10T07:45:55.715Z,253.13
2018-09-10T07:46:55.640Z,298.13
2018-09-10T07:47:55.565Z,303.75
2018-09-10T07:48:55.492Z,326.25
2018-09-10T07:49:55.404Z,354.38
2018-09-10T07:50:55.327Z,303.75
2018-09-10T07:51:55.252Z,320.63
2018-09-10T07:52:55.178Z,382.50
2018-09-10T07:53:55.102Z,376.88
2018-09-10T07:54:55.027Z,382.50
2018-09-10T07:55:54.953Z,382.50
2018-09-10T07:56:54.878Z,382.50
2018-09-10T07:57:54.802Z,388.13
2018-09-10T07:58:54.728Z,393.75
2018-09-10T07:59:54.653Z,393.75
2018-09-10T08:00:54.578Z,399.38
2018-09-10T08:01:54.504Z,399.38
2018-09-10T08:02:54.440Z,405.00
2018-09-10T08:03:54.355Z,410.63
2018-09-10T08:04:54.281Z,405.00
2018-09-10T08:05:54.208Z,410.63
2018-09-10T08:06:54.135Z,416.25
2018-09-10T08:07:54.057Z,416.25
2018-09-10T08:08:53.982Z,416.25
2018-09-10T08:09:53.918Z,416.25
2018-09-10T08:10:53.843Z,421.88
2018-09-10T08:11:53.770Z,421.88
2018-09-10T08:12:53.699Z,416.25
2018-09-10T08:13:53.629Z,421.88
2018-09-10T08:14:53.568Z,427.50
2018-09-10T08:15:53.481Z,433.13
2018-09-10T08:16:53.405Z,433.13
2018-09-10T08:17:53.330Z,438.75
2018-09-10T08:18:53.272Z,438.75
2018-09-10T08:19:53.193Z,444.38
2018-09-10T08:20:53.134Z,444.38
2018-09-10T08:21:53.057Z,444.38
2018-09-10T08:22:52.981Z,450.00
2018-09-10T08:23:52.920Z,455.63
2018-09-10T08:24:52.841Z,461.25
2018-09-10T08:25:52.770Z,472.50
2018-09-10T08:26:52.698Z,472.50
2018-09-10T08:27:52.620Z,478.13
2018-09-10T08:28:52.569Z,483.75
2018-09-10T08:29:52.481Z,489.38
2018-09-10T08:30:52.409Z,489.38
2018-09-10T08:31:52.346Z,511.88
2018-09-10T08:32:52.270Z,528.75
2018-09-10T08:33:52.212Z,545.63
2018-09-10T08:34:52.137Z,556.88
2018-09-10T08:35:52.057Z,556.88
2018-09-10T08:36:51.995Z,562.50
2018-09-10T08:37:51.923Z,585.00
2018-09-10T08:38:51.857Z,618.75
2018-09-10T08:39:51.795Z,630.00
2018-09-10T08:40:51.724Z,658.13
2018-09-10T08:41:51.646Z,641.25
2018-09-10T08:42:51.642Z,646.88
2018-09-10T08:43:51.507Z,618.75
2018-09-10T08:44:51.436Z,635.63
2018-09-10T08:45:51.358Z,641.25
2018-09-10T08:46:51.299Z,686.25
2018-09-10T08:47:51.221Z,691.88
2018-09-10T08:48:51.158Z,697.50
2018-09-10T08:49:51.084Z,708.75
2018-09-10T08:50:51.009Z,703.13
2018-09-10T08:51:50.957Z,691.88
2018-09-10T08:52:50.872Z,691.88
2018-09-10T08:53:50.850Z,703.13
2018-09-10T08:54:50.970Z,708.75
2018-09-10T08:55:50.840Z,708.75
2018-09-10T08:56:50.598Z,691.88
2018-09-10T08:57:50.526Z,624.38
2018-09-10T08:58:50.459Z,618.75
2018-09-10T08:59:50.384Z,613.13
2018-09-10T09:00:50.324Z,601.88
2018-09-10T09:01:50.281Z,601.88
2018-09-10T09:02:50.190Z,601.88
2018-09-10T09:03:50.113Z,596.25
2018-09-10T09:04:50.049Z,596.25
2018-09-10T09:05:49.994Z,596.25
2018-09-10T09:06:49.900Z,596.25
2018-09-10T09:07:49.866Z,590.63
2018-09-10T09:08:49.760Z,579.38
2018-09-10T09:09:49.686Z,573.75
2018-09-10T09:10:49.624Z,579.38
2018-09-10T09:11:49.551Z,556.88
2018-09-10T09:12:49.477Z,545.63
2018-09-10T09:13:49.411Z,528.75
2018-09-10T09:14:49.349Z,517.50
2018-09-10T09:15:49.274Z,511.88
2018-09-10T09:16:49.199Z,495.00
2018-09-10T09:17:49.133Z,483.75
2018-09-10T09:18:49.050Z,483.75
2018-09-10T09:19:48.992Z,489.38
2018-09-10T09:20:48.914Z,483.75
2018-09-10T09:21:48.852Z,489.38
2018-09-10T09:22:48.784Z,483.75
2018-09-10T09:23:48.712Z,483.75
2018-09-10T09:24:48.627Z,489.38
2018-09-10T09:25:48.550Z,489.38
2018-09-10T09:26:48.489Z,495.00
2018-09-10T09:27:48.418Z,495.00
2018-09-10T09:28:48.352Z,495.00
2018-09-10T09:29:48.269Z,495.00
2018-09-10T09:30:48.189Z,495.00
2018-09-10T09:31:48.134Z,500.63
2018-09-10T09:32:48.052Z,500.63
2018-09-10T09:33:47.976Z,500.63
2018-09-10T09:34:47.902Z,500.63
2018-09-10T09:35:47.827Z,495.00
2018-09-10T09:36:47.752Z,483.75
2018-09-10T09:37:47.689Z,478.13
2018-09-10T09:38:47.613Z,478.13
2018-09-10T09:39:47.538Z,489.38
2018-09-10T09:40:47.464Z,495.00
2018-09-10T09:41:47.389Z,506.25
2018-09-10T09:42:47.314Z,528.75
2018-09-10T09:43:47.253Z,540.00
2018-09-10T09:44:47.178Z,562.50
2018-09-10T09:45:47.103Z,579.38
2018-09-10T09:46:47.028Z,596.25
2018-09-10T09:47:46.952Z,607.50
2018-09-10T09:48:46.878Z,618.75
2018-09-10T09:49:46.803Z,630.00
2018-09-10T09:50:46.740Z,630.00
2018-09-10T09:51:46.679Z,630.00
2018-09-10T09:52:46.590Z,635.63
2018-09-10T09:53:46.516Z,652.50
2018-09-10T09:54:46.440Z,658.13
2018-09-10T09:55:46.365Z,669.38
2018-09-10T09:56:46.355Z,680.63
2018-09-10T09:57:46.216Z,691.88
2018-09-10T09:58:46.154Z,686.25
2018-09-10T09:59:46.079Z,680.63
2018-09-10T10:00:46.004Z,663.75
2018-09-10T10:01:45.930Z,646.88
2018-09-10T10:02:45.855Z,641.25
2018-09-10T10:03:45.780Z,630.00
2018-09-10T10:04:45.708Z,624.38
2018-09-10T10:05:45.642Z,607.50
2018-09-10T10:06:45.566Z,590.63
2018-09-10T10:07:45.492Z,590.63
2018-09-10T10:08:45.416Z,585.00
2018-09-10T10:09:45.341Z,590.63
2018-09-10T10:10:45.269Z,601.88
2018-09-10T10:11:45.296Z,618.75
2018-09-10T10:12:45.132Z,624.38
2018-09-10T10:13:45.062Z,618.75
2018-09-10T10:14:44.981Z,601.88
2018-09-10T10:15:44.906Z,585.00
2018-09-10T10:16:44.844Z,568.13
2018-09-10T10:17:44.767Z,556.88
2018-09-10T10:18:44.692Z,551.25
2018-09-10T10:19:44.618Z,545.63
2018-09-10T10:20:44.544Z,540.00
2018-09-10T10:21:44.482Z,540.00
2018-09-10T10:22:44.409Z,568.13
2018-09-10T10:23:44.333Z,601.88
2018-09-10T10:24:44.256Z,641.25
2018-09-10T10:25:44.181Z,686.25
2018-09-10T10:26:44.119Z,714.38
2018-09-10T10:27:44.045Z,720.00
2018-09-10T10:28:43.969Z,736.88
2018-09-10T10:29:43.894Z,793.13
2018-09-10T10:30:43.819Z,787.50
2018-09-10T10:31:43.759Z,781.88
2018-09-10T10:32:43.682Z,804.38
2018-09-10T10:33:43.607Z,888.75
2018-09-10T10:34:43.534Z,950.63
2018-09-10T10:35:43.470Z,961.88
2018-09-10T10:36:43.396Z,1074.38
2018-09-10T10:37:43.321Z,1096.88
2018-09-10T10:38:43.258Z,1130.63
2018-09-10T10:39:43.183Z,1147.50
2018-09-10T10:40:43.110Z,1102.50
2018-09-10T10:41:43.034Z,1091.25
2018-09-10T10:42:42.959Z,939.38
2018-09-10T10:43:42.896Z,804.38
2018-09-10T10:44:42.821Z,753.75
2018-09-10T10:45:42.747Z,725.63
2018-09-10T10:46:42.685Z,725.63
2018-09-10T10:47:42.610Z,686.25
2018-09-10T10:48:42.535Z,652.50
2018-09-10T10:49:42.471Z,630.00
2018-09-10T10:50:42.397Z,596.25
2018-09-10T10:51:42.322Z,579.38
2018-09-10T10:52:42.261Z,568.13
2018-09-10T10:53:42.211Z,568.13
2018-09-10T10:54:42.110Z,573.75
2018-09-10T10:55:42.047Z,573.75
2018-09-10T10:56:41.972Z,562.50
2018-09-10T10:57:41.897Z,540.00
2018-09-10T10:58:41.836Z,545.63
2018-09-10T10:59:41.760Z,551.25
2018-09-10T11:00:41.686Z,601.88
2018-09-10T11:01:41.616Z,669.38
2018-09-10T11:02:41.548Z,736.88
2018-09-10T11:03:41.473Z,736.88
2018-09-10T11:04:41.400Z,776.25
2018-09-10T11:05:41.323Z,860.63
2018-09-10T11:06:41.262Z,1051.88
2018-09-10T11:07:41.187Z,1237.50
2018-09-10T11:08:41.111Z,945.00
2018-09-10T11:09:41.038Z,1186.88
2018-09-10T11:10:40.973Z,967.50
2018-09-10T11:11:40.906Z,832.50
2018-09-10T11:12:40.855Z,725.63
2018-09-10T11:13:40.750Z,562.50
2018-09-10T11:14:40.688Z,455.63
2018-09-10T11:15:40.612Z,399.38
2018-09-10T11:16:40.649Z,393.75
2018-09-10T11:17:40.475Z,433.13
2018-09-10T11:18:40.399Z,478.13
2018-09-10T11:19:40.338Z,528.75
2018-09-10T11:20:40.250Z,573.75
2018-09-10T11:21:40.189Z,624.38
2018-09-10T11:22:40.113Z,691.88
2018-09-10T11:23:40.041Z,793.13
2018-09-10T11:24:39.966Z,922.50
2018-09-10T11:25:39.900Z,1001.25
2018-09-10T11:26:39.825Z,1282.50
2018-09-10T11:27:39.756Z,1395.00
2018-09-10T11:28:39.677Z,1400.63
2018-09-10T11:29:39.602Z,1096.88
2018-09-10T11:30:39.539Z,978.75
2018-09-10T11:31:39.465Z,939.38
2018-09-10T11:32:39.389Z,990.00
2018-09-10T11:33:39.326Z,1546.88
2018-09-10T11:34:39.296Z,1603.13
2018-09-10T11:35:39.189Z,1552.50
2018-09-10T11:36:39.102Z,1760.63
2018-09-10T11:37:39.039Z,1226.25
2018-09-10T11:38:38.965Z,1355.63
2018-09-10T11:39:38.890Z,1456.88
2018-09-10T11:40:38.826Z,1518.75
2018-09-10T11:41:38.752Z,2570.63
2018-09-10T11:42:38.678Z,1586.25
2018-09-10T11:43:38.616Z,1344.38
2018-09-10T11:44:38.541Z,1282.50
2018-09-10T11:45:38.477Z,894.38
2018-09-10T11:46:38.440Z,686.25
2018-09-10T11:47:38.327Z,675.00
2018-09-10T11:48:38.266Z,731.25
2018-09-10T11:49:38.191Z,765.00
2018-09-10T11:50:38.121Z,1170.00
2018-09-10T11:51:38.054Z,2019.38
2018-09-10T11:52:37.978Z,1164.38
2018-09-10T11:53:37.917Z,990.00
2018-09-10T11:54:37.842Z,1350.00
2018-09-10T11:55:37.847Z,1198.13
2018-09-10T11:56:37.704Z,1006.88
2018-09-10T11:57:37.628Z,1338.75
2018-09-10T11:58:37.569Z,2784.38
2018-09-10T11:59:37.492Z,1620.00
2018-09-10T12:00:37.418Z,1440.00
2018-09-10T12:01:37.368Z,1153.13
2018-09-10T12:02:37.292Z,939.38
2018-09-10T12:03:37.204Z,939.38
2018-09-10T12:04:37.131Z,922.50
2018-09-10T12:05:37.068Z,1721.25
2018-09-10T12:06:36.992Z,2767.50
2018-09-10T12:07:36.929Z,1586.25
2018-09-10T12:08:36.855Z,1530.00
2018-09-10T12:09:36.793Z,1805.63
2018-09-10T12:10:36.720Z,1434.38
2018-09-10T12:11:36.643Z,1636.88
2018-09-10T12:12:36.593Z,1209.38
2018-09-10T12:13:36.549Z,1001.25
2018-09-10T12:14:36.430Z,911.25
2018-09-10T12:15:36.368Z,804.38
2018-09-10T12:16:36.293Z,697.50
2018-09-10T12:17:36.230Z,601.88
2018-09-10T12:18:36.155Z,545.63
2018-09-10T12:19:36.096Z,517.50
2018-09-10T12:20:36.023Z,495.00
2018-09-10T12:21:36.017Z,511.88
2018-09-10T12:22:35.895Z,495.00
2018-09-10T12:23:35.806Z,478.13
2018-09-10T12:24:35.730Z,472.50
2018-09-10T12:25:35.673Z,483.75
2018-09-10T12:26:35.645Z,489.38
2018-09-10T12:27:35.525Z,495.00
2018-09-10T12:28:35.456Z,506.25
2018-09-10T12:29:35.394Z,500.63
2018-09-10T12:30:35.308Z,478.13
2018-09-10T12:31:35.245Z,450.00
2018-09-10T12:32:35.174Z,421.88
2018-09-10T12:33:35.094Z,382.50
2018-09-10T12:34:35.031Z,360.00
2018-09-10T12:35:34.958Z,360.00
2018-09-10T12:36:34.881Z,365.63
2018-09-10T12:37:34.807Z,376.88
2018-09-10T12:38:34.745Z,388.13
2018-09-10T12:39:34.704Z,405.00
2018-09-10T12:40:34.595Z,427.50
2018-09-10T12:41:34.521Z,450.00
2018-09-10T12:42:34.461Z,461.25
2018-09-10T12:43:34.382Z,450.00
2018-09-10T12:44:34.308Z,444.38
2018-09-10T12:45:34.236Z,450.00
2018-09-10T12:46:34.190Z,478.13